createdAt,value
2022-12-29T00:02:00.069Z,8.66
2022-12-29T00:04:26.894Z,8.77
2022-12-29T00:06:54.247Z,8.82
2022-12-29T00:09:21.357Z,8.91
2022-12-29T00:11:48.792Z,8.85
2022-12-29T00:14:34.053Z,9.01
2022-12-29T00:17:00.757Z,8.94
2022-12-29T00:19:46.788Z,9.04
2022-12-29T00:22:33.854Z,9.00
2022-12-29T00:25:19.454Z,8.92
2022-12-29T00:28:07.523Z,9.11
2022-12-29T00:30:55.184Z,9.11
2022-12-29T00:33:44.073Z,9.14
2022-12-29T00:36:43.075Z,9.17
2022-12-29T00:39:38.948Z,9.17
2022-12-29T00:42:26.107Z,9.27
2022-12-29T00:44:52.766Z,9.33
2022-12-29T00:47:19.545Z,9.26
2022-12-29T00:49:46.240Z,9.33
2022-12-29T00:52:14.013Z,9.33
2022-12-29T00:54:41.924Z,9.30
2022-12-29T00:57:10.426Z,9.40
2022-12-29T00:59:38.326Z,9.35
2022-12-29T01:02:05.412Z,9.34
2022-12-29T01:04:32.726Z,9.47
2022-12-29T01:06:59.801Z,9.37
2022-12-29T01:09:45.122Z,9.44
2022-12-29T01:12:12.508Z,9.44
2022-12-29T01:14:39.735Z,9.53
2022-12-29T01:17:07.578Z,9.48
2022-12-29T01:19:34.393Z,9.51
2022-12-29T01:22:01.220Z,9.55
2022-12-29T01:24:27.983Z,9.53
2022-12-29T01:26:55.646Z,9.55
2022-12-29T01:29:22.771Z,9.61
2022-12-29T01:31:50.818Z,9.58
2022-12-29T01:34:18.380Z,9.65
2022-12-29T01:36:45.306Z,9.65
2022-12-29T01:39:12.351Z,9.58
2022-12-29T01:41:39.180Z,9.65
2022-12-29T01:44:44.094Z,9.70
2022-12-29T01:47:11.311Z,9.76
2022-12-29T01:49:38.549Z,9.70
2022-12-29T01:52:08.969Z,9.73
2022-12-29T01:54:50.219Z,9.74
2022-12-29T01:57:21.584Z,9.73
2022-12-29T01:59:55.818Z,9.81
2022-12-29T02:02:22.860Z,9.77
2022-12-29T02:04:49.591Z,9.76
2022-12-29T02:07:21.123Z,9.74
2022-12-29T02:09:49.661Z,9.79
2022-12-29T02:12:19.035Z,9.75
2022-12-29T02:14:46.542Z,9.83
2022-12-29T02:17:19.450Z,9.81
2022-12-29T02:20:26.053Z,9.79
2022-12-29T02:23:30.342Z,9.88
2022-12-29T02:26:38.713Z,9.86
2022-12-29T02:29:27.239Z,9.84
2022-12-29T02:32:02.077Z,9.89
2022-12-29T02:34:43.884Z,9.82
2022-12-29T02:37:35.557Z,9.90
2022-12-29T02:40:08.365Z,9.86
2022-12-29T02:42:41.717Z,9.90
2022-12-29T02:45:19.213Z,9.76
2022-12-29T02:48:11.638Z,9.83
2022-12-29T02:50:58.760Z,9.88
2022-12-29T02:53:45.739Z,9.81
2022-12-29T02:56:12.439Z,9.89
2022-12-29T02:58:39.107Z,9.84
2022-12-29T03:01:30.518Z,9.92
2022-12-29T03:04:42.682Z,9.88
2022-12-29T03:07:33.767Z,9.81
2022-12-29T03:10:39.336Z,9.89
2022-12-29T03:13:42.877Z,9.92
2022-12-29T03:16:34.621Z,9.97
2022-12-29T03:19:06.966Z,10.06
2022-12-29T03:22:14.062Z,10.04
2022-12-29T03:24:44.866Z,10.01
2022-12-29T03:27:17.644Z,10.11
2022-12-29T03:29:56.196Z,10.16
2022-12-29T03:32:27.083Z,10.14
2022-12-29T03:34:55.096Z,10.11
2022-12-29T03:37:26.098Z,10.09
2022-12-29T03:39:52.872Z,10.25
2022-12-29T03:42:22.672Z,10.13
2022-12-29T03:44:49.371Z,10.21
2022-12-29T03:47:16.336Z,10.27
2022-12-29T03:49:43.953Z,10.13
2022-12-29T03:52:10.655Z,10.27
2022-12-29T03:54:37.340Z,10.21
2022-12-29T03:57:04.070Z,10.26
2022-12-29T03:59:30.829Z,10.25
2022-12-29T04:01:57.670Z,10.19
2022-12-29T04:04:24.596Z,10.25
2022-12-29T04:06:51.363Z,10.28
2022-12-29T04:09:18.159Z,10.32
2022-12-29T04:11:44.877Z,10.42
2022-12-29T04:14:11.767Z,10.48
2022-12-29T04:16:39.829Z,10.38
2022-12-29T04:19:08.476Z,10.31
2022-12-29T04:21:36.118Z,10.38
2022-12-29T04:24:03.010Z,10.36
2022-12-29T04:26:30.318Z,10.40
2022-12-29T04:28:57.051Z,10.44
2022-12-29T04:31:24.017Z,10.34
2022-12-29T04:33:51.245Z,10.44
2022-12-29T04:36:18.072Z,10.46
2022-12-29T04:38:47.582Z,10.50
2022-12-29T04:41:14.411Z,10.53
2022-12-29T04:43:41.540Z,10.40
2022-12-29T04:46:08.336Z,10.51
2022-12-29T04:48:35.055Z,10.43
2022-12-29T04:51:01.818Z,10.30
2022-12-29T04:53:28.528Z,10.29
2022-12-29T04:55:55.245Z,10.33
2022-12-29T04:58:22.989Z,10.43
2022-12-29T05:00:51.821Z,10.35
2022-12-29T05:03:19.113Z,10.35
2022-12-29T05:05:45.988Z,10.44
2022-12-29T05:08:12.744Z,10.40
2022-12-29T05:10:43.761Z,10.45
2022-12-29T05:13:10.440Z,10.46
2022-12-29T05:15:37.284Z,10.50
2022-12-29T05:18:04.006Z,10.49
2022-12-29T05:20:30.773Z,10.50
2022-12-29T05:22:57.448Z,10.50
2022-12-29T05:25:24.146Z,10.51
2022-12-29T05:27:50.791Z,10.55
2022-12-29T05:30:17.706Z,10.45
2022-12-29T05:32:45.111Z,10.48
2022-12-29T05:35:12.118Z,10.44
2022-12-29T05:37:38.827Z,10.34
2022-12-29T05:40:06.167Z,10.36
2022-12-29T05:42:32.829Z,10.39
2022-12-29T05:45:00.288Z,10.51
2022-12-29T05:47:27.100Z,10.40
2022-12-29T05:49:53.910Z,10.42
2022-12-29T05:52:20.677Z,10.34
2022-12-29T05:54:48.563Z,10.37
2022-12-29T05:57:15.297Z,10.43
2022-12-29T05:59:42.053Z,10.50
2022-12-29T06:02:08.939Z,10.60
2022-12-29T06:04:35.871Z,10.65
2022-12-29T06:07:02.743Z,10.51
2022-12-29T06:09:29.406Z,10.53
2022-12-29T06:11:56.092Z,10.42
2022-12-29T06:14:22.763Z,10.49
2022-12-29T06:16:49.528Z,10.56
2022-12-29T06:19:16.393Z,10.63
2022-12-29T06:21:43.947Z,10.59
2022-12-29T06:24:12.042Z,10.67
2022-12-29T06:26:38.904Z,10.55
2022-12-29T06:29:05.808Z,10.58
2022-12-29T06:31:32.467Z,10.42
2022-12-29T06:34:03.545Z,10.53
2022-12-29T06:36:33.520Z,10.66
2022-12-29T06:39:00.207Z,10.65
2022-12-29T06:41:31.893Z,10.71
2022-12-29T06:43:59.405Z,10.62
2022-12-29T06:46:26.125Z,10.60
2022-12-29T06:48:52.922Z,10.60
2022-12-29T06:51:19.561Z,10.58
2022-12-29T06:53:46.569Z,10.59
2022-12-29T06:56:13.232Z,10.69
2022-12-29T06:58:39.990Z,10.68
2022-12-29T07:01:06.970Z,10.73
2022-12-29T07:03:33.989Z,10.62
2022-12-29T07:06:00.670Z,10.67
2022-12-29T07:08:27.304Z,10.67
2022-12-29T07:10:53.990Z,10.75
2022-12-29T07:13:20.685Z,10.70
2022-12-29T07:15:47.322Z,10.68
2022-12-29T07:18:13.993Z,10.69
2022-12-29T07:20:40.784Z,10.59
2022-12-29T07:23:07.509Z,10.67
2022-12-29T07:25:36.088Z,10.47
2022-12-29T07:28:04.155Z,10.64
2022-12-29T07:30:30.827Z,10.50
2022-12-29T07:32:57.975Z,10.44
2022-12-29T07:35:24.841Z,10.41
2022-12-29T07:37:51.477Z,10.44
2022-12-29T07:40:18.224Z,10.42
2022-12-29T07:42:44.907Z,10.45
2022-12-29T07:45:12.035Z,10.52
2022-12-29T07:47:38.761Z,10.52
2022-12-29T07:50:06.145Z,10.52
2022-12-29T07:52:32.863Z,10.48
2022-12-29T07:54:59.962Z,10.61
2022-12-29T07:57:31.829Z,10.67
2022-12-29T07:59:59.370Z,10.65
2022-12-29T08:02:27.527Z,10.58
2022-12-29T08:04:54.515Z,10.51
2022-12-29T08:07:21.256Z,10.65
2022-12-29T08:09:47.956Z,10.63
2022-12-29T08:12:14.672Z,10.53
2022-12-29T08:14:41.446Z,10.60
2022-12-29T08:17:08.095Z,10.56
2022-12-29T08:19:34.824Z,10.59
2022-12-29T08:22:01.600Z,10.64
2022-12-29T08:24:28.292Z,10.58
2022-12-29T08:26:55.033Z,10.54
2022-12-29T08:29:22.558Z,10.52
2022-12-29T08:31:49.314Z,10.50
2022-12-29T08:34:16.173Z,10.51
2022-12-29T08:36:43.157Z,10.56
2022-12-29T08:39:09.986Z,10.59
2022-12-29T08:41:36.882Z,10.54
2022-12-29T08:44:03.541Z,10.57
2022-12-29T08:46:30.229Z,10.67
2022-12-29T08:48:57.083Z,10.56
2022-12-29T08:51:25.196Z,10.51
2022-12-29T08:53:52.721Z,10.41
2022-12-29T08:56:19.516Z,10.43
2022-12-29T08:58:46.167Z,10.35
2022-12-29T09:01:13.313Z,10.37
2022-12-29T09:04:14.337Z,10.31
2022-12-29T09:06:26.772Z,10.31
2022-12-29T09:08:55.587Z,10.37
2022-12-29T09:11:25.582Z,10.33
2022-12-29T09:13:53.317Z,10.43
2022-12-29T09:16:22.556Z,10.46
2022-12-29T09:18:49.843Z,10.57
2022-12-29T09:21:16.569Z,10.69
2022-12-29T09:23:43.420Z,10.69
2022-12-29T09:26:12.844Z,10.71
2022-12-29T09:28:39.898Z,10.80
2022-12-29T09:31:06.943Z,10.84
2022-12-29T09:33:36.518Z,10.75
2022-12-29T09:36:04.464Z,10.82
2022-12-29T09:38:31.192Z,10.71
2022-12-29T09:41:15.840Z,10.76
2022-12-29T09:43:57.443Z,10.78
2022-12-29T09:46:30.030Z,10.81
2022-12-29T09:49:35.736Z,10.88
2022-12-29T09:52:11.565Z,10.82
2022-12-29T09:55:02.875Z,10.84
2022-12-29T09:57:49.572Z,10.95
2022-12-29T10:00:23.024Z,10.92
2022-12-29T10:03:18.984Z,10.98
2022-12-29T10:06:05.378Z,10.90
2022-12-29T10:08:40.508Z,11.18
2022-12-29T10:11:23.352Z,11.06
2022-12-29T10:14:08.543Z,11.05
2022-12-29T10:16:58.483Z,11.03
2022-12-29T10:19:47.048Z,11.01
2022-12-29T10:22:38.165Z,10.97
2022-12-29T10:25:16.189Z,10.94
2022-12-29T10:27:44.653Z,10.91
2022-12-29T10:30:14.536Z,10.94
2022-12-29T10:32:46.386Z,10.93
2022-12-29T10:35:23.366Z,11.14
2022-12-29T10:38:28.355Z,10.98
2022-12-29T10:41:16.057Z,10.96
2022-12-29T10:43:45.779Z,11.01
2022-12-29T10:46:17.411Z,11.00
2022-12-29T10:48:46.362Z,11.02
2022-12-29T10:51:28.903Z,11.17
2022-12-29T10:54:15.980Z,10.96
2022-12-29T10:57:02.742Z,10.91
2022-12-29T10:59:32.470Z,10.88
2022-12-29T11:02:08.172Z,11.01
2022-12-29T11:04:44.065Z,11.06
2022-12-29T11:07:16.140Z,11.05
2022-12-29T11:09:44.979Z,10.95
2022-12-29T11:12:28.357Z,11.10
2022-12-29T11:15:07.111Z,10.94
2022-12-29T11:17:48.937Z,10.97
2022-12-29T11:20:29.641Z,10.95
2022-12-29T11:22:57.310Z,10.77
2022-12-29T11:25:28.109Z,10.77
2022-12-29T11:28:15.801Z,10.72
2022-12-29T11:30:43.304Z,10.70
2022-12-29T11:33:10.723Z,10.75
2022-12-29T11:35:41.867Z,10.79
2022-12-29T11:38:22.867Z,10.57
2022-12-29T11:40:50.008Z,10.66
2022-12-29T11:43:39.493Z,10.55
2022-12-29T11:46:07.460Z,10.55
2022-12-29T11:48:42.120Z,10.43
2022-12-29T11:51:10.746Z,10.28
2022-12-29T11:53:47.996Z,10.31
2022-12-29T11:56:21.146Z,10.56
2022-12-29T11:58:50.416Z,10.61
2022-12-29T12:01:20.591Z,10.56
2022-12-29T12:03:56.524Z,10.76
2022-12-29T12:06:25.278Z,10.67
2022-12-29T12:09:06.751Z,10.78
2022-12-29T12:11:39.035Z,10.68
2022-12-29T12:14:15.029Z,10.56
2022-12-29T12:16:47.660Z,10.53
2022-12-29T12:19:33.662Z,10.49
2022-12-29T12:22:08.994Z,10.36
2022-12-29T12:24:50.183Z,10.32
2022-12-29T12:27:27.090Z,10.30
2022-12-29T12:30:25.444Z,10.15
2022-12-29T12:33:23.387Z,10.18
2022-12-29T12:36:22.414Z,10.14
2022-12-29T12:38:53.148Z,10.03
2022-12-29T12:41:33.203Z,9.97
2022-12-29T12:44:03.022Z,9.94
2022-12-29T12:46:51.146Z,9.98
2022-12-29T12:49:54.570Z,9.88
2022-12-29T12:52:31.281Z,9.85
2022-12-29T12:55:16.736Z,9.89
2022-12-29T12:57:56.290Z,9.83
2022-12-29T13:00:24.387Z,9.82
2022-12-29T13:02:59.280Z,9.81
2022-12-29T13:06:02.868Z,9.85
2022-12-29T13:09:01.357Z,9.80
2022-12-29T13:11:43.263Z,9.77
2022-12-29T13:14:40.697Z,9.73
2022-12-29T13:17:23.100Z,9.72
2022-12-29T13:19:55.822Z,9.68
2022-12-29T13:22:31.382Z,9.69
2022-12-29T13:25:09.130Z,9.57
2022-12-29T13:27:46.763Z,9.49
2022-12-29T13:30:38.074Z,9.54
2022-12-29T13:33:25.032Z,9.49
2022-12-29T13:35:57.377Z,9.47
2022-12-29T13:38:27.497Z,9.57
2022-12-29T13:40:58.035Z,9.53
2022-12-29T13:43:28.253Z,9.50
2022-12-29T13:46:16.322Z,9.53
2022-12-29T13:48:54.557Z,9.52
2022-12-29T13:51:27.645Z,9.56
2022-12-29T13:54:00.845Z,9.52
2022-12-29T13:56:55.909Z,9.54
2022-12-29T13:59:28.384Z,9.55
2022-12-29T14:02:08.056Z,9.60
2022-12-29T14:04:36.101Z,9.56
2022-12-29T14:07:06.857Z,9.51
2022-12-29T14:09:49.940Z,9.53
2022-12-29T14:12:41.760Z,9.55
2022-12-29T14:15:11.481Z,9.53
2022-12-29T14:17:41.329Z,9.54
2022-12-29T14:20:21.647Z,9.53
2022-12-29T14:23:11.579Z,9.54
2022-12-29T14:25:59.638Z,9.55
2022-12-29T14:28:36.059Z,9.50
2022-12-29T14:31:04.958Z,9.49
2022-12-29T14:33:34.406Z,9.49
2022-12-29T14:36:27.897Z,9.54
2022-12-29T14:38:54.631Z,9.55
2022-12-29T14:41:38.820Z,9.55
2022-12-29T14:44:08.484Z,9.56
2022-12-29T14:46:54.152Z,9.59
2022-12-29T14:49:26.922Z,9.57
2022-12-29T14:52:05.221Z,9.54
2022-12-29T14:54:44.164Z,9.51
2022-12-29T14:57:23.620Z,9.56
2022-12-29T14:59:55.367Z,9.57
2022-12-29T15:02:27.164Z,9.51
2022-12-29T15:05:00.582Z,9.46
2022-12-29T15:07:29.892Z,9.51
2022-12-29T15:10:04.160Z,9.43
2022-12-29T15:12:41.764Z,9.50
2022-12-29T15:15:27.263Z,9.47
2022-12-29T15:17:54.449Z,9.46
2022-12-29T15:20:24.064Z,9.44
2022-12-29T15:22:55.830Z,9.42
2022-12-29T15:25:22.847Z,9.41
2022-12-29T15:27:52.613Z,9.40
2022-12-29T15:30:20.063Z,9.39
2022-12-29T15:32:48.817Z,9.32
2022-12-29T15:35:30.421Z,9.31
2022-12-29T15:37:57.775Z,9.21
2022-12-29T15:40:30.310Z,9.27
2022-12-29T15:43:09.557Z,9.25
2022-12-29T15:45:36.908Z,9.22
2022-12-29T15:48:05.962Z,9.18
2022-12-29T15:50:34.836Z,9.18
2022-12-29T15:53:02.775Z,9.18
2022-12-29T15:55:41.172Z,9.11
2022-12-29T15:58:24.548Z,9.08
2022-12-29T16:00:54.810Z,9.07
2022-12-29T16:03:23.835Z,9.10
2022-12-29T16:05:54.289Z,9.07
2022-12-29T16:08:33.819Z,9.06
2022-12-29T16:11:23.509Z,9.05
2022-12-29T16:13:52.635Z,8.93
2022-12-29T16:16:41.207Z,8.91
2022-12-29T16:19:26.748Z,8.93
2022-12-29T16:21:53.648Z,8.88
2022-12-29T16:24:24.570Z,8.89
2022-12-29T16:27:10.143Z,8.87
2022-12-29T16:29:37.499Z,8.82
2022-12-29T16:32:23.820Z,8.75
2022-12-29T16:34:52.620Z,8.76
2022-12-29T16:37:34.146Z,8.74
2022-12-29T16:40:19.120Z,8.63
2022-12-29T16:42:51.772Z,8.72
2022-12-29T16:45:25.085Z,8.62
2022-12-29T16:48:07.116Z,8.78
2022-12-29T16:50:41.024Z,8.64
2022-12-29T16:53:21.342Z,8.66
2022-12-29T16:55:51.544Z,8.67
2022-12-29T16:58:24.135Z,8.75
2022-12-29T17:00:56.545Z,8.69
2022-12-29T17:03:29.028Z,8.60
2022-12-29T17:05:57.839Z,8.47
2022-12-29T17:08:24.917Z,8.55
2022-12-29T17:11:16.120Z,8.52
2022-12-29T17:13:42.888Z,8.50
2022-12-29T17:16:11.640Z,8.62
2022-12-29T17:18:39.838Z,8.66
2022-12-29T17:21:06.631Z,8.68
2022-12-29T17:23:34.715Z,8.69
2022-12-29T17:26:02.389Z,8.76
2022-12-29T17:28:32.963Z,8.71
2022-12-29T17:31:04.137Z,8.72
2022-12-29T17:33:37.759Z,8.76
2022-12-29T17:36:04.732Z,8.79
2022-12-29T17:38:40.779Z,8.83
2022-12-29T17:41:14.406Z,8.74
2022-12-29T17:43:41.166Z,8.80
2022-12-29T17:46:08.911Z,8.77
2022-12-29T17:48:35.832Z,8.77
2022-12-29T17:51:02.723Z,8.85
2022-12-29T17:53:30.763Z,8.71
2022-12-29T17:55:57.722Z,8.85
2022-12-29T17:58:27.276Z,8.86
2022-12-29T18:00:57.146Z,8.72
2022-12-29T18:03:28.584Z,8.75
2022-12-29T18:05:55.827Z,8.74
2022-12-29T18:08:22.491Z,8.83
2022-12-29T18:10:55.344Z,8.79
2022-12-29T18:13:26.392Z,8.89
2022-12-29T18:15:55.287Z,8.88
2022-12-29T18:18:24.215Z,8.75
2022-12-29T18:20:53.709Z,8.91
2022-12-29T18:23:35.338Z,8.75
2022-12-29T18:26:12.532Z,8.68
2022-12-29T18:28:39.392Z,8.75
2022-12-29T18:31:17.381Z,8.72
2022-12-29T18:33:44.150Z,8.73
2022-12-29T18:36:12.403Z,8.82
2022-12-29T18:38:39.138Z,8.85
2022-12-29T18:41:05.995Z,8.88
2022-12-29T18:43:32.866Z,8.75
2022-12-29T18:45:59.550Z,8.83
2022-12-29T18:48:26.333Z,8.92
2022-12-29T18:50:53.563Z,8.88
2022-12-29T18:53:24.806Z,8.91
2022-12-29T18:55:52.937Z,8.81
2022-12-29T18:58:20.046Z,8.71
2022-12-29T19:00:47.627Z,8.83
2022-12-29T19:03:17.289Z,8.65
2022-12-29T19:05:46.203Z,8.85
2022-12-29T19:08:13.346Z,8.78
2022-12-29T19:10:42.009Z,8.77
2022-12-29T19:13:16.494Z,8.75
2022-12-29T19:15:43.967Z,8.74
2022-12-29T19:18:43.117Z,8.70
2022-12-29T19:21:03.022Z,8.82
2022-12-29T19:23:29.941Z,8.72
2022-12-29T19:25:56.818Z,8.84
2022-12-29T19:28:27.296Z,8.78
2022-12-29T19:30:57.488Z,8.90
2022-12-29T19:33:24.898Z,8.94
2022-12-29T19:35:52.294Z,8.84
2022-12-29T19:38:19.997Z,8.80
2022-12-29T19:40:49.132Z,8.87
2022-12-29T19:43:16.405Z,8.84
2022-12-29T19:45:44.425Z,8.77
2022-12-29T19:48:17.666Z,8.72
2022-12-29T19:50:44.774Z,8.86
2022-12-29T19:53:12.309Z,8.83
2022-12-29T19:55:46.916Z,8.82
2022-12-29T19:58:14.767Z,8.85
2022-12-29T20:00:44.612Z,8.72
2022-12-29T20:03:11.950Z,8.70
2022-12-29T20:05:39.944Z,8.75
2022-12-29T20:08:07.151Z,8.72
2022-12-29T20:10:34.091Z,8.87
2022-12-29T20:13:01.064Z,8.86
2022-12-29T20:15:27.857Z,8.86
2022-12-29T20:20:42.300Z,8.70
2022-12-29T20:23:09.262Z,8.77
2022-12-29T20:25:45.151Z,8.67
2022-12-29T20:28:12.953Z,8.66
2022-12-29T20:30:39.822Z,8.67
2022-12-29T20:33:08.589Z,8.63
2022-12-29T20:35:36.285Z,8.63
2022-12-29T20:38:03.999Z,8.54
2022-12-29T20:40:30.882Z,8.63
2022-12-29T20:42:57.665Z,8.57
2022-12-29T20:45:24.447Z,8.61
2022-12-29T20:47:51.317Z,8.55
2022-12-29T20:50:18.063Z,8.65
2022-12-29T20:52:45.141Z,8.65
2022-12-29T20:55:11.861Z,8.58
2022-12-29T21:00:30.536Z,8.62
2022-12-29T21:02:59.319Z,8.61
2022-12-29T21:05:27.577Z,8.61
2022-12-29T21:07:55.021Z,8.68
2022-12-29T21:10:21.951Z,8.61
2022-12-29T21:12:48.720Z,8.59
2022-12-29T21:15:16.015Z,8.60
2022-12-29T21:17:43.832Z,8.59
2022-12-29T21:20:20.001Z,8.56
2022-12-29T21:22:49.968Z,8.49
2022-12-29T21:25:16.745Z,8.54
2022-12-29T21:27:44.261Z,8.58
2022-12-29T21:30:12.042Z,8.48
2022-12-29T21:32:39.539Z,8.48
2022-12-29T21:35:07.599Z,8.45
2022-12-29T21:37:34.981Z,8.45
2022-12-29T21:40:02.925Z,8.49
2022-12-29T21:42:29.784Z,8.43
2022-12-29T21:45:20.081Z,8.28
2022-12-29T21:48:05.799Z,8.29
2022-12-29T21:50:32.555Z,8.28
2022-12-29T21:52:59.344Z,8.30
2022-12-29T21:55:26.004Z,8.32
2022-12-29T21:58:11.179Z,8.38
2022-12-29T22:00:56.335Z,8.33
2022-12-29T22:03:41.564Z,8.36
2022-12-29T22:06:30.032Z,8.35
2022-12-29T22:09:15.283Z,8.35
2022-12-29T22:12:00.563Z,8.37
2022-12-29T22:14:27.156Z,8.40
2022-12-29T22:16:53.839Z,8.39
2022-12-29T22:19:20.776Z,8.41
2022-12-29T22:21:47.454Z,8.39
2022-12-29T22:24:14.211Z,8.42
2022-12-29T22:26:40.914Z,8.37
2022-12-29T22:29:07.701Z,8.38
2022-12-29T22:31:34.506Z,8.38
2022-12-29T22:34:03.341Z,8.36
2022-12-29T22:36:30.633Z,8.33
2022-12-29T22:38:57.299Z,8.31
2022-12-29T22:41:24.198Z,8.30
2022-12-29T22:43:51.017Z,8.26
2022-12-29T22:46:17.704Z,8.22
2022-12-29T22:48:44.434Z,8.21
2022-12-29T22:51:11.167Z,8.21
2022-12-29T22:53:37.893Z,8.21
2022-12-29T22:56:10.597Z,8.19
2022-12-29T22:58:41.792Z,8.17
2022-12-29T23:01:09.268Z,8.22
2022-12-29T23:03:36.192Z,8.20
2022-12-29T23:06:05.582Z,8.13
2022-12-29T23:08:35.477Z,8.14
2022-12-29T23:11:02.751Z,8.09
2022-12-29T23:13:29.745Z,8.09
2022-12-29T23:15:56.511Z,8.11
2022-12-29T23:18:23.449Z,8.20
2022-12-29T23:20:51.779Z,8.16
2022-12-29T23:23:44.863Z,8.20
2022-12-29T23:26:15.055Z,8.16
2022-12-29T23:28:42.549Z,8.24
2022-12-29T23:31:09.793Z,8.16
2022-12-29T23:33:36.888Z,8.13
2022-12-29T23:36:04.191Z,8.10
2022-12-29T23:38:31.017Z,8.06
2022-12-29T23:40:57.902Z,8.02
2022-12-29T23:43:24.808Z,8.08
2022-12-29T23:45:51.885Z,8.06
2022-12-29T23:48:19.011Z,8.20
2022-12-29T23:50:46.338Z,8.13
2022-12-29T23:53:13.259Z,8.18
2022-12-29T23:55:44.183Z,8.26
2022-12-29T23:58:11.483Z,8.22
